sensor_id;sensor_type;location;lat;lon;timestamp;P1;durP1;ratioP1;P2;durP2;ratioP2
75417;SDS011;63997;52.112;5.420;2023-06-22T00:00:01;2.70;;;2.33;;
75417;SDS011;63997;52.112;5.420;2023-06-22T00:02:28;3.72;;;2.47;;
75417;SDS011;63997;52.112;5.420;2023-06-22T00:04:55;4.53;;;2.83;;
75417;SDS011;63997;52.112;5.420;2023-06-22T00:07:21;4.03;;;2.30;;
75417;SDS011;63997;52.112;5.420;2023-06-22T00:09:50;2.72;;;2.53;;
75417;SDS011;63997;52.112;5.420;2023-06-22T00:12:17;3.50;;;2.20;;
75417;SDS011;63997;52.112;5.420;2023-06-22T00:14:43;3.22;;;2.45;;
75417;SDS011;63997;52.112;5.420;2023-06-22T00:17:10;6.57;;;3.50;;
75417;SDS011;63997;52.112;5.420;2023-06-22T00:19:36;3.15;;;2.70;;
75417;SDS011;63997;52.112;5.420;2023-06-22T00:22:06;4.70;;;2.25;;
75417;SDS011;63997;52.112;5.420;2023-06-22T00:24:33;4.37;;;3.07;;
75417;SDS011;63997;52.112;5.420;2023-06-22T00:26:59;8.80;;;2.90;;
75417;SDS011;63997;52.112;5.420;2023-06-22T00:29:26;3.47;;;3.08;;
75417;SDS011;63997;52.112;5.420;2023-06-22T00:31:52;3.55;;;2.80;;
75417;SDS011;63997;52.112;5.420;2023-06-22T00:34:19;4.28;;;2.72;;
75417;SDS011;63997;52.112;5.420;2023-06-22T00:36:45;2.97;;;2.60;;
75417;SDS011;63997;52.112;5.420;2023-06-22T00:39:12;3.75;;;2.67;;
75417;SDS011;63997;52.112;5.420;2023-06-22T00:41:39;4.18;;;2.60;;
75417;SDS011;63997;52.112;5.420;2023-06-22T00:44:06;4.43;;;1.80;;
75417;SDS011;63997;52.112;5.420;2023-06-22T00:46:36;8.88;;;2.72;;
75417;SDS011;63997;52.112;5.420;2023-06-22T00:49:02;2.43;;;2.00;;
75417;SDS011;63997;52.112;5.420;2023-06-22T00:51:31;4.22;;;2.55;;
75417;SDS011;63997;52.112;5.420;2023-06-22T00:54:00;2.90;;;2.40;;
75417;SDS011;63997;52.112;5.420;2023-06-22T00:56:26;2.80;;;2.38;;
75417;SDS011;63997;52.112;5.420;2023-06-22T00:58:56;5.15;;;2.70;;
75417;SDS011;63997;52.112;5.420;2023-06-22T01:01:25;3.77;;;2.87;;
75417;SDS011;63997;52.112;5.420;2023-06-22T01:03:53;2.60;;;1.90;;
75417;SDS011;63997;52.112;5.420;2023-06-22T01:06:29;4.03;;;2.30;;
75417;SDS011;63997;52.112;5.420;2023-06-22T01:09:19;3.40;;;2.85;;
75417;SDS011;63997;52.112;5.420;2023-06-22T01:11:54;4.10;;;1.65;;
75417;SDS011;63997;52.112;5.420;2023-06-22T01:14:36;2.10;;;1.47;;
75417;SDS011;63997;52.112;5.420;2023-06-22T01:17:08;4.18;;;3.25;;
75417;SDS011;63997;52.112;5.420;2023-06-22T01:19:39;4.15;;;2.65;;
75417;SDS011;63997;52.112;5.420;2023-06-22T01:22:15;4.65;;;2.47;;
75417;SDS011;63997;52.112;5.420;2023-06-22T01:25:07;3.45;;;1.85;;
75417;SDS011;63997;52.112;5.420;2023-06-22T01:28:00;3.07;;;2.60;;
75417;SDS011;63997;52.112;5.420;2023-06-22T01:30:42;3.28;;;2.55;;
75417;SDS011;63997;52.112;5.420;2023-06-22T01:33:10;3.70;;;3.00;;
75417;SDS011;63997;52.112;5.420;2023-06-22T01:35:39;4.80;;;2.63;;
75417;SDS011;63997;52.112;5.420;2023-06-22T01:38:07;2.33;;;1.67;;
75417;SDS011;63997;52.112;5.420;2023-06-22T01:40:36;2.60;;;2.00;;
75417;SDS011;63997;52.112;5.420;2023-06-22T01:43:03;3.33;;;2.40;;
75417;SDS011;63997;52.112;5.420;2023-06-22T01:45:30;4.05;;;2.97;;
75417;SDS011;63997;52.112;5.420;2023-06-22T01:47:56;6.88;;;2.22;;
75417;SDS011;63997;52.112;5.420;2023-06-22T01:50:23;3.47;;;2.92;;
75417;SDS011;63997;52.112;5.420;2023-06-22T01:52:50;5.50;;;3.23;;
75417;SDS011;63997;52.112;5.420;2023-06-22T01:55:17;4.63;;;3.28;;
75417;SDS011;63997;52.112;5.420;2023-06-22T01:57:43;3.63;;;2.65;;
75417;SDS011;63997;52.112;5.420;2023-06-22T02:00:12;7.30;;;2.53;;
75417;SDS011;63997;52.112;5.420;2023-06-22T02:05:18;3.73;;;2.27;;
75417;SDS011;63997;52.112;5.420;2023-06-22T02:07:49;5.65;;;2.72;;
75417;SDS011;63997;52.112;5.420;2023-06-22T02:10:35;3.53;;;2.50;;
75417;SDS011;63997;52.112;5.420;2023-06-22T02:13:04;2.92;;;2.00;;
75417;SDS011;63997;52.112;5.420;2023-06-22T02:15:32;2.88;;;2.30;;
75417;SDS011;63997;52.112;5.420;2023-06-22T02:18:00;3.97;;;3.50;;
75417;SDS011;63997;52.112;5.420;2023-06-22T02:20:27;3.95;;;2.22;;
75417;SDS011;63997;52.112;5.420;2023-06-22T02:22:54;3.42;;;2.55;;
75417;SDS011;63997;52.112;5.420;2023-06-22T02:25:20;4.10;;;2.60;;
75417;SDS011;63997;52.112;5.420;2023-06-22T02:27:47;4.13;;;2.65;;
75417;SDS011;63997;52.112;5.420;2023-06-22T02:30:13;2.63;;;2.10;;
75417;SDS011;63997;52.112;5.420;2023-06-22T02:32:42;2.83;;;2.03;;
75417;SDS011;63997;52.112;5.420;2023-06-22T02:35:09;3.05;;;1.40;;
75417;SDS011;63997;52.112;5.420;2023-06-22T02:37:36;1.55;;;1.23;;
75417;SDS011;63997;52.112;5.420;2023-06-22T02:40:08;2.83;;;2.40;;
75417;SDS011;63997;52.112;5.420;2023-06-22T02:42:37;4.23;;;2.40;;
75417;SDS011;63997;52.112;5.420;2023-06-22T02:45:04;2.65;;;1.83;;
75417;SDS011;63997;52.112;5.420;2023-06-22T02:47:31;4.18;;;1.75;;
75417;SDS011;63997;52.112;5.420;2023-06-22T02:49:58;3.35;;;2.25;;
75417;SDS011;63997;52.112;5.420;2023-06-22T02:52:26;6.30;;;2.60;;
75417;SDS011;63997;52.112;5.420;2023-06-22T02:54:53;6.83;;;3.03;;
75417;SDS011;63997;52.112;5.420;2023-06-22T02:57:19;3.78;;;3.15;;
75417;SDS011;63997;52.112;5.420;2023-06-22T02:59:46;4.47;;;3.63;;
75417;SDS011;63997;52.112;5.420;2023-06-22T03:02:12;4.68;;;3.78;;
75417;SDS011;63997;52.112;5.420;2023-06-22T03:04:40;4.43;;;2.75;;
75417;SDS011;63997;52.112;5.420;2023-06-22T03:07:07;3.50;;;3.00;;
75417;SDS011;63997;52.112;5.420;2023-06-22T03:09:33;4.50;;;3.42;;
75417;SDS011;63997;52.112;5.420;2023-06-22T03:12:00;5.47;;;3.58;;
75417;SDS011;63997;52.112;5.420;2023-06-22T03:14:28;5.55;;;1.95;;
75417;SDS011;63997;52.112;5.420;2023-06-22T03:16:54;2.80;;;1.80;;
75417;SDS011;63997;52.112;5.420;2023-06-22T03:19:21;2.80;;;2.20;;
75417;SDS011;63997;52.112;5.420;2023-06-22T03:21:47;3.90;;;2.60;;
75417;SDS011;63997;52.112;5.420;2023-06-22T03:24:14;3.72;;;2.72;;
75417;SDS011;63997;52.112;5.420;2023-06-22T03:26:40;4.65;;;2.90;;
75417;SDS011;63997;52.112;5.420;2023-06-22T03:29:15;4.15;;;3.58;;
75417;SDS011;63997;52.112;5.420;2023-06-22T03:31:42;5.07;;;2.83;;
75417;SDS011;63997;52.112;5.420;2023-06-22T03:34:15;6.80;;;3.40;;
75417;SDS011;63997;52.112;5.420;2023-06-22T03:36:45;4.43;;;2.90;;
75417;SDS011;63997;52.112;5.420;2023-06-22T03:39:16;4.43;;;2.67;;
75417;SDS011;63997;52.112;5.420;2023-06-22T03:41:46;3.15;;;2.35;;
75417;SDS011;63997;52.112;5.420;2023-06-22T03:44:14;2.10;;;1.83;;
75417;SDS011;63997;52.112;5.420;2023-06-22T03:46:46;2.47;;;2.28;;
75417;SDS011;63997;52.112;5.420;2023-06-22T03:49:13;2.25;;;1.70;;
75417;SDS011;63997;52.112;5.420;2023-06-22T03:51:46;3.13;;;2.47;;
75417;SDS011;63997;52.112;5.420;2023-06-22T03:54:14;4.88;;;2.47;;
75417;SDS011;63997;52.112;5.420;2023-06-22T03:56:41;2.60;;;2.30;;
75417;SDS011;63997;52.112;5.420;2023-06-22T03:59:09;2.75;;;1.98;;
75417;SDS011;63997;52.112;5.420;2023-06-22T04:01:40;2.85;;;2.10;;
75417;SDS011;63997;52.112;5.420;2023-06-22T04:04:07;1.80;;;1.65;;
75417;SDS011;63997;52.112;5.420;2023-06-22T04:06:39;2.67;;;1.90;;
75417;SDS011;63997;52.112;5.420;2023-06-22T04:09:16;3.80;;;3.20;;
75417;SDS011;63997;52.112;5.420;2023-06-22T04:11:49;3.90;;;2.85;;
75417;SDS011;63997;52.112;5.420;2023-06-22T04:14:16;2.50;;;2.30;;
75417;SDS011;63997;52.112;5.420;2023-06-22T04:16:42;2.10;;;1.80;;
75417;SDS011;63997;52.112;5.420;2023-06-22T04:19:09;3.63;;;2.20;;
75417;SDS011;63997;52.112;5.420;2023-06-22T04:21:42;2.97;;;2.33;;
75417;SDS011;63997;52.112;5.420;2023-06-22T04:24:11;3.75;;;2.78;;
75417;SDS011;63997;52.112;5.420;2023-06-22T04:26:37;3.97;;;2.90;;
75417;SDS011;63997;52.112;5.420;2023-06-22T04:29:05;3.85;;;2.97;;
75417;SDS011;63997;52.112;5.420;2023-06-22T04:31:35;4.57;;;2.58;;
75417;SDS011;63997;52.112;5.420;2023-06-22T04:34:05;5.13;;;2.77;;
75417;SDS011;63997;52.112;5.420;2023-06-22T04:36:37;4.15;;;2.42;;
75417;SDS011;63997;52.112;5.420;2023-06-22T04:39:07;3.45;;;2.90;;
75417;SDS011;63997;52.112;5.420;2023-06-22T04:41:39;4.38;;;3.03;;
75417;SDS011;63997;52.112;5.420;2023-06-22T04:44:13;4.25;;;3.80;;
75417;SDS011;63997;52.112;5.420;2023-06-22T04:46:52;7.87;;;5.23;;
75417;SDS011;63997;52.112;5.420;2023-06-22T04:49:26;7.93;;;5.65;;
75417;SDS011;63997;52.112;5.420;2023-06-22T04:52:02;7.03;;;5.00;;
75417;SDS011;63997;52.112;5.420;2023-06-22T04:54:30;7.13;;;5.00;;
75417;SDS011;63997;52.112;5.420;2023-06-22T04:57:01;10.15;;;5.82;;
75417;SDS011;63997;52.112;5.420;2023-06-22T04:59:28;8.13;;;5.83;;
75417;SDS011;63997;52.112;5.420;2023-06-22T05:01:57;15.70;;;7.82;;
75417;SDS011;63997;52.112;5.420;2023-06-22T05:04:26;14.20;;;9.30;;
75417;SDS011;63997;52.112;5.420;2023-06-22T05:06:54;16.80;;;10.23;;
75417;SDS011;63997;52.112;5.420;2023-06-22T05:09:21;18.25;;;10.80;;
75417;SDS011;63997;52.112;5.420;2023-06-22T05:11:48;16.23;;;11.43;;
75417;SDS011;63997;52.112;5.420;2023-06-22T05:14:14;14.18;;;10.38;;
75417;SDS011;63997;52.112;5.420;2023-06-22T05:16:41;19.90;;;10.80;;
75417;SDS011;63997;52.112;5.420;2023-06-22T05:19:08;16.40;;;11.48;;
75417;SDS011;63997;52.112;5.420;2023-06-22T05:21:35;19.48;;;12.85;;
75417;SDS011;63997;52.112;5.420;2023-06-22T05:24:02;19.27;;;12.83;;
75417;SDS011;63997;52.112;5.420;2023-06-22T05:26:29;22.48;;;14.18;;
75417;SDS011;63997;52.112;5.420;2023-06-22T05:28:57;20.95;;;13.80;;
75417;SDS011;63997;52.112;5.420;2023-06-22T05:31:25;24.55;;;15.00;;
75417;SDS011;63997;52.112;5.420;2023-06-22T05:33:51;19.80;;;15.02;;
75417;SDS011;63997;52.112;5.420;2023-06-22T05:36:19;20.57;;;14.43;;
75417;SDS011;63997;52.112;5.420;2023-06-22T05:38:47;21.05;;;15.05;;
75417;SDS011;63997;52.112;5.420;2023-06-22T05:41:13;27.23;;;14.88;;
75417;SDS011;63997;52.112;5.420;2023-06-22T05:43:40;27.23;;;15.75;;
75417;SDS011;63997;52.112;5.420;2023-06-22T05:46:06;23.27;;;16.48;;
75417;SDS011;63997;52.112;5.420;2023-06-22T05:48:33;26.57;;;16.47;;
75417;SDS011;63997;52.112;5.420;2023-06-22T05:51:00;29.85;;;17.75;;
75417;SDS011;63997;52.112;5.420;2023-06-22T05:53:27;24.42;;;17.33;;
75417;SDS011;63997;52.112;5.420;2023-06-22T05:55:54;25.77;;;16.85;;
75417;SDS011;63997;52.112;5.420;2023-06-22T05:58:20;25.80;;;16.05;;
75417;SDS011;63997;52.112;5.420;2023-06-22T06:00:47;24.97;;;17.83;;
75417;SDS011;63997;52.112;5.420;2023-06-22T06:03:14;20.17;;;14.30;;
75417;SDS011;63997;52.112;5.420;2023-06-22T06:05:43;25.52;;;16.05;;
75417;SDS011;63997;52.112;5.420;2023-06-22T06:08:11;23.77;;;15.68;;
75417;SDS011;63997;52.112;5.420;2023-06-22T06:10:38;21.25;;;15.68;;
75417;SDS011;63997;52.112;5.420;2023-06-22T06:13:05;21.30;;;15.03;;
75417;SDS011;63997;52.112;5.420;2023-06-22T06:15:32;21.75;;;16.67;;
75417;SDS011;63997;52.112;5.420;2023-06-22T06:18:00;22.08;;;15.00;;
75417;SDS011;63997;52.112;5.420;2023-06-22T06:20:26;21.08;;;16.00;;
75417;SDS011;63997;52.112;5.420;2023-06-22T06:22:56;20.02;;;15.23;;
75417;SDS011;63997;52.112;5.420;2023-06-22T06:25:23;21.30;;;14.63;;
75417;SDS011;63997;52.112;5.420;2023-06-22T06:27:50;17.85;;;13.30;;
75417;SDS011;63997;52.112;5.420;2023-06-22T06:30:18;20.67;;;14.57;;
75417;SDS011;63997;52.112;5.420;2023-06-22T06:32:45;16.60;;;12.70;;
75417;SDS011;63997;52.112;5.420;2023-06-22T06:35:13;19.27;;;14.90;;
75417;SDS011;63997;52.112;5.420;2023-06-22T06:37:42;19.13;;;14.03;;
75417;SDS011;63997;52.112;5.420;2023-06-22T06:40:11;18.48;;;13.40;;
75417;SDS011;63997;52.112;5.420;2023-06-22T06:42:40;16.58;;;13.43;;
75417;SDS011;63997;52.112;5.420;2023-06-22T06:45:12;15.95;;;12.45;;
75417;SDS011;63997;52.112;5.420;2023-06-22T06:47:43;20.35;;;13.82;;
75417;SDS011;63997;52.112;5.420;2023-06-22T06:50:10;17.57;;;13.60;;
75417;SDS011;63997;52.112;5.420;2023-06-22T06:52:37;17.52;;;14.75;;
75417;SDS011;63997;52.112;5.420;2023-06-22T06:55:04;22.08;;;14.90;;
75417;SDS011;63997;52.112;5.420;2023-06-22T06:57:35;14.52;;;12.43;;
75417;SDS011;63997;52.112;5.420;2023-06-22T07:00:04;17.88;;;13.15;;
75417;SDS011;63997;52.112;5.420;2023-06-22T07:02:36;18.97;;;13.87;;
75417;SDS011;63997;52.112;5.420;2023-06-22T07:05:02;18.25;;;13.80;;
75417;SDS011;63997;52.112;5.420;2023-06-22T07:07:30;19.33;;;13.93;;
75417;SDS011;63997;52.112;5.420;2023-06-22T07:09:57;16.65;;;13.82;;
75417;SDS011;63997;52.112;5.420;2023-06-22T07:12:23;17.20;;;13.27;;
75417;SDS011;63997;52.112;5.420;2023-06-22T07:14:51;15.37;;;12.40;;
75417;SDS011;63997;52.112;5.420;2023-06-22T07:17:18;14.82;;;11.50;;
75417;SDS011;63997;52.112;5.420;2023-06-22T07:19:45;14.05;;;11.85;;
75417;SDS011;63997;52.112;5.420;2023-06-22T07:22:11;12.68;;;10.80;;
75417;SDS011;63997;52.112;5.420;2023-06-22T07:24:38;15.20;;;11.90;;
75417;SDS011;63997;52.112;5.420;2023-06-22T07:27:04;15.97;;;12.27;;
75417;SDS011;63997;52.112;5.420;2023-06-22T07:29:32;14.63;;;11.07;;
75417;SDS011;63997;52.112;5.420;2023-06-22T07:31:59;16.02;;;11.55;;
75417;SDS011;63997;52.112;5.420;2023-06-22T07:34:26;13.07;;;11.25;;
75417;SDS011;63997;52.112;5.420;2023-06-22T07:36:53;15.93;;;11.60;;
75417;SDS011;63997;52.112;5.420;2023-06-22T07:39:19;16.13;;;11.07;;
75417;SDS011;63997;52.112;5.420;2023-06-22T07:41:51;15.60;;;10.70;;
75417;SDS011;63997;52.112;5.420;2023-06-22T07:44:19;17.13;;;12.07;;
75417;SDS011;63997;52.112;5.420;2023-06-22T07:46:45;13.43;;;10.48;;
75417;SDS011;63997;52.112;5.420;2023-06-22T07:49:12;15.15;;;11.13;;
75417;SDS011;63997;52.112;5.420;2023-06-22T07:51:38;12.20;;;9.73;;
75417;SDS011;63997;52.112;5.420;2023-06-22T07:54:05;11.25;;;9.23;;
75417;SDS011;63997;52.112;5.420;2023-06-22T07:56:33;12.65;;;9.98;;
75417;SDS011;63997;52.112;5.420;2023-06-22T07:59:00;13.25;;;10.35;;
75417;SDS011;63997;52.112;5.420;2023-06-22T08:01:29;13.00;;;9.77;;
75417;SDS011;63997;52.112;5.420;2023-06-22T08:03:56;13.10;;;9.37;;
75417;SDS011;63997;52.112;5.420;2023-06-22T08:06:23;15.00;;;9.45;;
75417;SDS011;63997;52.112;5.420;2023-06-22T08:08:49;15.00;;;8.77;;
75417;SDS011;63997;52.112;5.420;2023-06-22T08:11:15;11.77;;;9.23;;
75417;SDS011;63997;52.112;5.420;2023-06-22T08:13:42;10.55;;;8.80;;
75417;SDS011;63997;52.112;5.420;2023-06-22T08:16:09;13.83;;;10.00;;
75417;SDS011;63997;52.112;5.420;2023-06-22T08:18:35;10.80;;;9.18;;
75417;SDS011;63997;52.112;5.420;2023-06-22T08:21:01;12.38;;;9.50;;
75417;SDS011;63997;52.112;5.420;2023-06-22T08:23:31;11.77;;;8.95;;
75417;SDS011;63997;52.112;5.420;2023-06-22T08:25:57;10.63;;;9.05;;
75417;SDS011;63997;52.112;5.420;2023-06-22T08:28:24;17.77;;;9.57;;
75417;SDS011;63997;52.112;5.420;2023-06-22T08:30:50;10.25;;;8.60;;
75417;SDS011;63997;52.112;5.420;2023-06-22T08:33:18;10.85;;;8.55;;
75417;SDS011;63997;52.112;5.420;2023-06-22T08:35:54;10.20;;;8.80;;
75417;SDS011;63997;52.112;5.420;2023-06-22T08:38:21;9.85;;;8.00;;
75417;SDS011;63997;52.112;5.420;2023-06-22T08:40:48;10.30;;;8.30;;
75417;SDS011;63997;52.112;5.420;2023-06-22T08:43:14;10.75;;;8.02;;
75417;SDS011;63997;52.112;5.420;2023-06-22T08:45:41;10.98;;;8.63;;
75417;SDS011;63997;52.112;5.420;2023-06-22T08:48:09;10.63;;;7.15;;
75417;SDS011;63997;52.112;5.420;2023-06-22T08:50:36;8.38;;;7.53;;
75417;SDS011;63997;52.112;5.420;2023-06-22T08:53:02;10.27;;;7.90;;
75417;SDS011;63997;52.112;5.420;2023-06-22T08:55:29;10.05;;;7.25;;
75417;SDS011;63997;52.112;5.420;2023-06-22T08:57:56;7.38;;;6.60;;
75417;SDS011;63997;52.112;5.420;2023-06-22T09:00:22;8.52;;;6.05;;
75417;SDS011;63997;52.112;5.420;2023-06-22T09:03:05;8.07;;;5.78;;
75417;SDS011;63997;52.112;5.420;2023-06-22T09:05:32;8.60;;;6.37;;
75417;SDS011;63997;52.112;5.420;2023-06-22T09:08:00;7.47;;;6.72;;
75417;SDS011;63997;52.112;5.420;2023-06-22T09:10:26;10.02;;;5.95;;
75417;SDS011;63997;52.112;5.420;2023-06-22T09:12:53;9.80;;;5.45;;
75417;SDS011;63997;52.112;5.420;2023-06-22T09:15:20;14.98;;;5.53;;
75417;SDS011;63997;52.112;5.420;2023-06-22T09:17:46;5.83;;;5.10;;
75417;SDS011;63997;52.112;5.420;2023-06-22T09:20:16;5.18;;;4.60;;
75417;SDS011;63997;52.112;5.420;2023-06-22T09:22:43;7.60;;;4.93;;
75417;SDS011;63997;52.112;5.420;2023-06-22T09:25:14;5.00;;;4.15;;
75417;SDS011;63997;52.112;5.420;2023-06-22T09:27:41;7.22;;;4.18;;
75417;SDS011;63997;52.112;5.420;2023-06-22T09:30:08;5.40;;;4.40;;
75417;SDS011;63997;52.112;5.420;2023-06-22T09:32:35;4.72;;;4.20;;
75417;SDS011;63997;52.112;5.420;2023-06-22T09:35:03;7.65;;;4.38;;
75417;SDS011;63997;52.112;5.420;2023-06-22T09:37:38;4.40;;;3.47;;
75417;SDS011;63997;52.112;5.420;2023-06-22T09:40:09;4.95;;;4.20;;
75417;SDS011;63997;52.112;5.420;2023-06-22T09:42:38;6.13;;;4.20;;
75417;SDS011;63997;52.112;5.420;2023-06-22T09:45:09;3.65;;;3.30;;
75417;SDS011;63997;52.112;5.420;2023-06-22T09:47:36;6.78;;;4.13;;
75417;SDS011;63997;52.112;5.420;2023-06-22T09:50:02;4.80;;;3.75;;
75417;SDS011;63997;52.112;5.420;2023-06-22T09:52:29;6.68;;;3.95;;
75417;SDS011;63997;52.112;5.420;2023-06-22T09:55:14;5.17;;;4.23;;
75417;SDS011;63997;52.112;5.420;2023-06-22T09:57:45;3.85;;;3.45;;
75417;SDS011;63997;52.112;5.420;2023-06-22T10:00:12;5.50;;;4.63;;
75417;SDS011;63997;52.112;5.420;2023-06-22T10:02:41;8.98;;;5.30;;
75417;SDS011;63997;52.112;5.420;2023-06-22T10:05:12;7.95;;;5.10;;
75417;SDS011;63997;52.112;5.420;2023-06-22T10:07:42;5.43;;;4.50;;
75417;SDS011;63997;52.112;5.420;2023-06-22T10:10:17;6.80;;;4.20;;
75417;SDS011;63997;52.112;5.420;2023-06-22T10:12:48;6.65;;;4.05;;
75417;SDS011;63997;52.112;5.420;2023-06-22T10:15:27;5.13;;;4.63;;
75417;SDS011;63997;52.112;5.420;2023-06-22T10:17:58;5.38;;;4.13;;
75417;SDS011;63997;52.112;5.420;2023-06-22T10:20:24;6.23;;;4.07;;
75417;SDS011;63997;52.112;5.420;2023-06-22T10:22:52;6.38;;;4.20;;
75417;SDS011;63997;52.112;5.420;2023-06-22T10:25:20;4.70;;;3.65;;
75417;SDS011;63997;52.112;5.420;2023-06-22T10:27:51;5.18;;;3.50;;
75417;SDS011;63997;52.112;5.420;2023-06-22T10:30:24;4.18;;;3.78;;
75417;SDS011;63997;52.112;5.420;2023-06-22T10:33:15;10.13;;;3.53;;
75417;SDS011;63997;52.112;5.420;2023-06-22T10:35:53;3.53;;;3.10;;
75417;SDS011;63997;52.112;5.420;2023-06-22T10:38:22;3.90;;;3.22;;
75417;SDS011;63997;52.112;5.420;2023-06-22T10:40:54;4.78;;;2.90;;
75417;SDS011;63997;52.112;5.420;2023-06-22T10:43:24;3.97;;;3.22;;
75417;SDS011;63997;52.112;5.420;2023-06-22T10:45:52;6.80;;;3.27;;
75417;SDS011;63997;52.112;5.420;2023-06-22T10:48:21;5.53;;;3.83;;
75417;SDS011;63997;52.112;5.420;2023-06-22T10:50:48;6.20;;;3.38;;
75417;SDS011;63997;52.112;5.420;2023-06-22T10:53:14;5.88;;;4.25;;
75417;SDS011;63997;52.112;5.420;2023-06-22T10:55:40;5.75;;;3.88;;
75417;SDS011;63997;52.112;5.420;2023-06-22T10:58:22;5.50;;;4.07;;
75417;SDS011;63997;52.112;5.420;2023-06-22T11:00:48;6.13;;;4.28;;
75417;SDS011;63997;52.112;5.420;2023-06-22T11:03:15;5.20;;;4.00;;
75417;SDS011;63997;52.112;5.420;2023-06-22T11:05:41;4.53;;;3.80;;
75417;SDS011;63997;52.112;5.420;2023-06-22T11:08:08;5.43;;;4.28;;
75417;SDS011;63997;52.112;5.420;2023-06-22T11:10:35;5.07;;;3.40;;
75417;SDS011;63997;52.112;5.420;2023-06-22T11:13:01;5.05;;;4.40;;
75417;SDS011;63997;52.112;5.420;2023-06-22T11:15:30;6.47;;;4.85;;
75417;SDS011;63997;52.112;5.420;2023-06-22T11:17:56;6.05;;;5.45;;
75417;SDS011;63997;52.112;5.420;2023-06-22T11:20:23;7.05;;;4.60;;
75417;SDS011;63997;52.112;5.420;2023-06-22T11:22:50;7.47;;;5.17;;
75417;SDS011;63997;52.112;5.420;2023-06-22T11:25:16;9.25;;;5.60;;
75417;SDS011;63997;52.112;5.420;2023-06-22T11:27:43;5.13;;;4.63;;
75417;SDS011;63997;52.112;5.420;2023-06-22T11:30:10;6.55;;;5.07;;
75417;SDS011;63997;52.112;5.420;2023-06-22T11:32:36;6.18;;;4.80;;
75417;SDS011;63997;52.112;5.420;2023-06-22T11:35:04;5.63;;;3.90;;
75417;SDS011;63997;52.112;5.420;2023-06-22T11:37:30;5.75;;;4.20;;
75417;SDS011;63997;52.112;5.420;2023-06-22T11:39:57;5.57;;;4.65;;
75417;SDS011;63997;52.112;5.420;2023-06-22T11:42:32;5.25;;;4.07;;
75417;SDS011;63997;52.112;5.420;2023-06-22T11:45:00;4.97;;;4.47;;
75417;SDS011;63997;52.112;5.420;2023-06-22T11:47:26;5.60;;;4.10;;
75417;SDS011;63997;52.112;5.420;2023-06-22T11:49:53;5.35;;;4.70;;
75417;SDS011;63997;52.112;5.420;2023-06-22T11:52:19;10.18;;;6.60;;
75417;SDS011;63997;52.112;5.420;2023-06-22T11:54:46;9.05;;;6.97;;
75417;SDS011;63997;52.112;5.420;2023-06-22T11:57:13;10.55;;;7.07;;
75417;SDS011;63997;52.112;5.420;2023-06-22T11:59:39;9.60;;;6.27;;
75417;SDS011;63997;52.112;5.420;2023-06-22T12:02:06;7.68;;;6.45;;
75417;SDS011;63997;52.112;5.420;2023-06-22T12:04:35;7.43;;;5.72;;
75417;SDS011;63997;52.112;5.420;2023-06-22T12:07:02;8.68;;;6.38;;
75417;SDS011;63997;52.112;5.420;2023-06-22T12:09:30;9.23;;;7.38;;
75417;SDS011;63997;52.112;5.420;2023-06-22T12:12:00;7.67;;;6.53;;
75417;SDS011;63997;52.112;5.420;2023-06-22T12:14:26;9.85;;;6.20;;
75417;SDS011;63997;52.112;5.420;2023-06-22T12:16:55;8.77;;;5.97;;
75417;SDS011;63997;52.112;5.420;2023-06-22T12:19:21;9.05;;;6.15;;
75417;SDS011;63997;52.112;5.420;2023-06-22T12:21:48;8.27;;;6.13;;
75417;SDS011;63997;52.112;5.420;2023-06-22T12:24:14;8.00;;;6.57;;
75417;SDS011;63997;52.112;5.420;2023-06-22T12:26:41;14.80;;;8.35;;
75417;SDS011;63997;52.112;5.420;2023-06-22T12:29:07;12.52;;;7.35;;
75417;SDS011;63997;52.112;5.420;2023-06-22T12:31:37;8.77;;;7.65;;
75417;SDS011;63997;52.112;5.420;2023-06-22T12:34:06;10.70;;;7.93;;
75417;SDS011;63997;52.112;5.420;2023-06-22T12:36:32;11.03;;;8.30;;
75417;SDS011;63997;52.112;5.420;2023-06-22T12:38:59;11.82;;;8.20;;
75417;SDS011;63997;52.112;5.420;2023-06-22T12:41:25;11.48;;;8.85;;
75417;SDS011;63997;52.112;5.420;2023-06-22T12:43:52;11.70;;;8.05;;
75417;SDS011;63997;52.112;5.420;2023-06-22T12:46:18;10.75;;;8.20;;
75417;SDS011;63997;52.112;5.420;2023-06-22T12:48:45;10.03;;;8.13;;
75417;SDS011;63997;52.112;5.420;2023-06-22T12:51:19;9.48;;;8.45;;
75417;SDS011;63997;52.112;5.420;2023-06-22T12:53:49;11.25;;;7.88;;
75417;SDS011;63997;52.112;5.420;2023-06-22T12:56:15;9.43;;;7.70;;
75417;SDS011;63997;52.112;5.420;2023-06-22T12:58:42;11.88;;;8.38;;
75417;SDS011;63997;52.112;5.420;2023-06-22T13:01:08;9.67;;;7.63;;
75417;SDS011;63997;52.112;5.420;2023-06-22T13:03:36;8.40;;;7.30;;
75417;SDS011;63997;52.112;5.420;2023-06-22T13:06:02;17.30;;;8.55;;
75417;SDS011;63997;52.112;5.420;2023-06-22T13:08:29;9.93;;;8.23;;
75417;SDS011;63997;52.112;5.420;2023-06-22T13:11:16;11.57;;;8.32;;
75417;SDS011;63997;52.112;5.420;2023-06-22T13:13:43;13.97;;;9.13;;
75417;SDS011;63997;52.112;5.420;2023-06-22T13:16:10;15.15;;;9.27;;
75417;SDS011;63997;52.112;5.420;2023-06-22T13:18:37;14.18;;;10.10;;
75417;SDS011;63997;52.112;5.420;2023-06-22T13:21:04;16.20;;;9.55;;
75417;SDS011;63997;52.112;5.420;2023-06-22T13:23:31;10.82;;;9.43;;
75417;SDS011;63997;52.112;5.420;2023-06-22T13:25:57;11.23;;;9.73;;
75417;SDS011;63997;52.112;5.420;2023-06-22T13:28:24;11.88;;;10.15;;
75417;SDS011;63997;52.112;5.420;2023-06-22T13:30:54;12.85;;;9.60;;
75417;SDS011;63997;52.112;5.420;2023-06-22T13:33:20;16.02;;;10.60;;
75417;SDS011;63997;52.112;5.420;2023-06-22T13:35:47;18.77;;;10.63;;
75417;SDS011;63997;52.112;5.420;2023-06-22T13:38:13;13.20;;;9.43;;
75417;SDS011;63997;52.112;5.420;2023-06-22T13:40:40;12.82;;;9.73;;
75417;SDS011;63997;52.112;5.420;2023-06-22T13:43:06;11.77;;;9.10;;
75417;SDS011;63997;52.112;5.420;2023-06-22T13:45:33;10.48;;;9.43;;
75417;SDS011;63997;52.112;5.420;2023-06-22T13:47:59;10.98;;;8.82;;
75417;SDS011;63997;52.112;5.420;2023-06-22T13:50:26;9.60;;;8.60;;
75417;SDS011;63997;52.112;5.420;2023-06-22T13:52:53;12.80;;;8.95;;
75417;SDS011;63997;52.112;5.420;2023-06-22T13:55:19;13.65;;;9.48;;
75417;SDS011;63997;52.112;5.420;2023-06-22T13:57:47;12.82;;;9.38;;
75417;SDS011;63997;52.112;5.420;2023-06-22T14:00:13;11.00;;;9.45;;
75417;SDS011;63997;52.112;5.420;2023-06-22T14:02:40;13.93;;;9.53;;
75417;SDS011;63997;52.112;5.420;2023-06-22T14:05:07;11.20;;;9.63;;
75417;SDS011;63997;52.112;5.420;2023-06-22T14:07:34;11.40;;;10.00;;
75417;SDS011;63997;52.112;5.420;2023-06-22T14:10:01;10.30;;;8.77;;
75417;SDS011;63997;52.112;5.420;2023-06-22T14:12:27;15.65;;;9.68;;
75417;SDS011;63997;52.112;5.420;2023-06-22T14:14:54;11.67;;;9.07;;
75417;SDS011;63997;52.112;5.420;2023-06-22T14:17:20;11.40;;;9.15;;
75417;SDS011;63997;52.112;5.420;2023-06-22T14:19:51;12.05;;;9.50;;
75417;SDS011;63997;52.112;5.420;2023-06-22T14:22:19;12.40;;;9.82;;
75417;SDS011;63997;52.112;5.420;2023-06-22T14:24:46;10.30;;;9.23;;
75417;SDS011;63997;52.112;5.420;2023-06-22T14:27:15;10.17;;;9.17;;
75417;SDS011;63997;52.112;5.420;2023-06-22T14:29:41;12.18;;;9.35;;
75417;SDS011;63997;52.112;5.420;2023-06-22T14:32:08;12.35;;;9.93;;
75417;SDS011;63997;52.112;5.420;2023-06-22T14:34:35;11.15;;;9.13;;
75417;SDS011;63997;52.112;5.420;2023-06-22T14:37:08;12.95;;;9.60;;
75417;SDS011;63997;52.112;5.420;2023-06-22T14:39:39;12.83;;;9.57;;
75417;SDS011;63997;52.112;5.420;2023-06-22T14:42:08;17.05;;;10.45;;
75417;SDS011;63997;52.112;5.420;2023-06-22T14:44:35;14.68;;;10.20;;
75417;SDS011;63997;52.112;5.420;2023-06-22T14:47:01;14.82;;;10.60;;